Ana Sayfa
METAR-TAF:

METAR-TAF

Havaalanları :

Soekarno-Hatta Uluslararası Havalimanı

Cakarta, Java, Endonezya

Enlem: 06-07S, Boylam: 106-39E, yükseklik: 8 m

Güncel hava durumu gözlemi

Rapor saat 09:30 UTC de 24 dakika önce yapıldı.
Rüzgar değişken yönden 3 kt
Sıcaklık 29°C
Nem 74%
Basınç 1008 hPa
Görüş mesafesi: 9000 m
2000 ft yükseklikte az bulutlu

METAR: WIII 250930Z VRB03KT 9000 FEW020 29/24 Q1008 NOSIG

Saat: 16:54 (09:54 UTC)

Tahmin

Rapor saat 05:00 UTC de 4 saat ve 54 dakika önce yapıldı.
Ayın 25'si saat 06 UTC'den ayın 26'si saat 12 UTC'ye kadar geçerli Tahmin
Rüzgar kuzey/kuzeybatıdan 10 kt
Görüş mesafesi: 9000 m
2000 ft yükseklikte parçalı bulutlu
Dönüşüyor
ayın 25'si saat 10 UTC'den ayın 25'si saat 12 UTC'ye kadar
Rüzgar batı/güneybatıdan 5 kt

TAF: WIII 250500Z 2506/2612 33010KT 9000 SCT020 BECMG 2510/2512 25005KT

4.000'den fazla havaalanı için hava durumu gözlemleri ve tahminleri (METAR ve TAF raporları).

Kullanılabilir istasyonlar harita üzerinde sarı ve kırmızı noktalarla gösterilir.

İstasyonun adını görmek için fareyi noktanın üzerinde gezdirin.

Sonrasında hava gözlem ve tahminlerini görmek için tıklayın.

Haritayı değiştirmek için: yaklaştırmak için siyah artı işaretli yeşil düğmeye ve uzaklaştırmak için de eksi işaretli düğmeye hızla tıklayın; bitişik haritalar için yeşil okları kullanın.


METAR-TAF: